Dragor, Denmark
Current Conditions -  °F | °C
As of 7:20 AM on Thursday 23 Oct 2014 (Local Time) from EKCH Reporting Station
Broken Clouds Broken Clouds  
Wind Chill: 11°   Ceiling: 1900
Heat Index: 11°   Visibility: 6mi
Dew Point:   Wind: 14mph
Humidity: 88%   Direction: 110°ESE
Pressure: 30.09"   Gusts: NA
Location:  55.59°N, 12.67°E
Report Text: EKCH 230520Z 11012KT 9999 FEW009 BKN019 11/09 Q1019 NOSIG
Loading
Personal Weather Stations






























Interactive Weather Map
Tropical Storm Tracking
New forecast layout! Learn more

10-Day Weather Forecast

Advertisements
Track Severe Weather on mobile